MMAA/ACA METAR and TAF weather

Enter ICAO airport designator
Station Type Date Time Source
MMAA METAR 2020/07/06 01:42 UTC NOAA

MMAA 060142Z 27006KT 6SM BKN100 BKN300 29/24 A2981 RMK 8/062 HZY DSNT CB NE NW


Station Type Date Time Source
MMAA Decoded METAR 2020/07/06 01:42 UTC NOAA

Acapulco / G. Alvarez, Mexico (MMAA) 16-46N 099-45W
Jul 05, 2020 - 09:42 PM EDT / 2020.07.06 0142 UTC
Wind: from the W (270 degrees) at 7 MPH (6 KT):0
Visibility: 6 mile(s):0
Sky conditions: mostly cloudy
Weather: Cumulonimbus clouds observed
Temperature: 84 F (29 C)
Dew Point: 75 F (24 C)
Relative Humidity: 74%
Pressure (altimeter): 29.81 in. Hg (1009 hPa)
ob: MMAA 060142Z 27006KT 6SM BKN100 BKN300 29/24 A2981 RMK 8/062 HZY DSNT CB NE NW
cycle: 1

Station Type Date Time Source
MMAA TAF 2020/07/06 06:51 UTC NOAA

TAF TAF MMAA 060449Z 0606/0712 03005KT P6SM SCT015 SCT300 TX32/0622Z TN26/0612Z
TEMPO 0608/0612 3SM TSRA BKN015CB
FM061600 16010KT P6SM SCT015 BKN100
FM062200 16012KT P6SM SCT015CB BKN100
TEMPO 0622/0702 5SM TSRA BKN015CB
FM070200 03010KT 5SM RA BKN015CB OVC070
TEMPO 0702/0706 2SM TSRA

Example: see airport list